createdAt,value
2023-03-10T00:00:35.184Z,11.60
2023-03-10T00:01:36.763Z,11.60
2023-03-10T00:02:38.965Z,11.50
2023-03-10T00:03:41.262Z,11.50
2023-03-10T00:04:42.858Z,11.40
2023-03-10T00:05:44.849Z,11.40
2023-03-10T00:06:46.625Z,11.40
2023-03-10T00:07:50.206Z,11.40
2023-03-10T00:08:52.336Z,11.30
2023-03-10T00:09:54.024Z,11.40
2023-03-10T00:10:55.547Z,11.40
2023-03-10T00:11:57.094Z,11.30
2023-03-10T00:12:58.908Z,11.40
2023-03-10T00:14:00.911Z,11.30
2023-03-10T00:15:02.365Z,11.20
2023-03-10T00:16:04.879Z,11.30
2023-03-10T00:17:07.056Z,11.20
2023-03-10T00:18:08.806Z,11.10
2023-03-10T00:19:10.426Z,11.10
2023-03-10T00:20:12.788Z,11.10
2023-03-10T00:21:20.863Z,11.20
2023-03-10T00:22:22.426Z,11.10
2023-03-10T00:23:23.927Z,11.00
2023-03-10T00:24:25.442Z,11.00
2023-03-10T00:25:27.404Z,11.00
2023-03-10T00:26:29.302Z,11.00
2023-03-10T00:27:31.052Z,11.00
2023-03-10T00:28:32.509Z,11.00
2023-03-10T00:29:34.373Z,11.00
2023-03-10T00:30:37.110Z,11.00
2023-03-10T00:31:39.432Z,11.00
2023-03-10T00:32:42.862Z,11.10
2023-03-10T00:33:45.385Z,11.20
2023-03-10T00:34:47.055Z,11.20
2023-03-10T00:35:48.822Z,11.20
2023-03-10T00:36:50.511Z,11.20
2023-03-10T00:37:52.036Z,11.20
2023-03-10T00:38:55.962Z,11.20
2023-03-10T00:39:58.011Z,11.30
2023-03-10T00:41:06.089Z,11.20
2023-03-10T00:42:07.762Z,11.30
2023-03-10T00:43:09.513Z,11.30
2023-03-10T00:44:11.853Z,11.30
2023-03-10T00:45:13.385Z,11.30
2023-03-10T00:46:16.954Z,11.30
2023-03-10T00:47:18.474Z,11.40
2023-03-10T00:48:20.016Z,11.50
2023-03-10T00:49:21.798Z,11.40
2023-03-10T00:50:23.415Z,11.40
2023-03-10T00:51:25.177Z,11.50
2023-03-10T00:52:27.449Z,11.40
2023-03-10T00:53:30.394Z,11.40
2023-03-10T00:54:32.200Z,11.40
2023-03-10T00:55:33.602Z,11.40
2023-03-10T00:56:35.198Z,11.40
2023-03-10T00:57:38.448Z,11.20
2023-03-10T00:58:40.545Z,11.10
2023-03-10T00:59:50.427Z,11.10
2023-03-10T01:00:52.153Z,11.10
2023-03-10T01:01:53.949Z,11.10
2023-03-10T01:02:55.622Z,11.10
2023-03-10T01:03:59.397Z,11.00
2023-03-10T01:05:00.984Z,11.00
2023-03-10T01:06:02.565Z,11.00
2023-03-10T01:07:04.665Z,10.90
2023-03-10T01:08:08.585Z,11.00
2023-03-10T01:09:10.446Z,11.00
2023-03-10T01:10:12.772Z,10.90
2023-03-10T01:11:16.384Z,10.90
2023-03-10T01:12:18.000Z,10.90
2023-03-10T01:13:19.903Z,10.90
2023-03-10T01:14:21.577Z,10.90
2023-03-10T01:15:23.744Z,10.90
2023-03-10T01:16:26.050Z,10.90
2023-03-10T01:17:29.539Z,10.90
2023-03-10T01:18:31.168Z,10.80
2023-03-10T01:19:33.436Z,10.80
2023-03-10T01:20:36.646Z,10.80
2023-03-10T01:21:39.704Z,10.80
2023-03-10T01:22:41.594Z,10.90
2023-03-10T01:23:43.474Z,10.90
2023-03-10T01:24:44.922Z,10.80
2023-03-10T01:25:46.485Z,10.80
2023-03-10T01:26:47.884Z,10.80
2023-03-10T01:27:49.397Z,10.80
2023-03-10T01:28:50.993Z,10.70
2023-03-10T01:29:52.892Z,10.80
2023-03-10T01:30:54.396Z,10.80
2023-03-10T01:31:55.904Z,10.80
2023-03-10T01:32:57.978Z,10.80
2023-03-10T01:33:59.574Z,10.80
2023-03-10T01:35:02.571Z,10.80
2023-03-10T01:36:12.354Z,10.80
2023-03-10T01:37:13.910Z,10.80
2023-03-10T01:38:16.865Z,10.80
2023-03-10T01:39:18.725Z,10.80
2023-03-10T01:40:20.208Z,10.80
2023-03-10T01:41:22.790Z,10.80
2023-03-10T01:42:24.730Z,10.80
2023-03-10T01:43:31.801Z,10.80
2023-03-10T01:44:33.989Z,10.90
2023-03-10T01:45:38.234Z,10.90
2023-03-10T01:46:54.691Z,10.90
2023-03-10T01:48:03.137Z,10.90
2023-03-10T01:49:27.809Z,10.90
2023-03-10T01:50:29.309Z,10.90
2023-03-10T01:51:34.732Z,11.00
2023-03-10T01:52:37.018Z,11.00
2023-03-10T01:53:39.031Z,11.00
2023-03-10T01:54:56.683Z,11.10
2023-03-10T01:56:03.648Z,11.10
2023-03-10T01:57:06.227Z,11.10
2023-03-10T01:58:10.178Z,11.10
2023-03-10T01:59:12.349Z,11.10
2023-03-10T02:00:16.191Z,11.10
2023-03-10T02:01:20.305Z,11.10
2023-03-10T02:02:22.622Z,11.10
2023-03-10T02:03:49.625Z,11.10
2023-03-10T02:04:53.997Z,11.20
2023-03-10T02:05:59.404Z,11.20
2023-03-10T02:07:03.535Z,11.20
2023-03-10T02:08:06.649Z,11.20
2023-03-10T02:09:09.432Z,11.20
2023-03-10T02:10:13.281Z,11.30
2023-03-10T02:11:15.883Z,11.30
2023-03-10T02:12:18.337Z,11.30
2023-03-10T02:13:19.957Z,11.30
2023-03-10T02:14:22.214Z,11.30
2023-03-10T02:15:23.678Z,11.40
2023-03-10T02:16:25.264Z,11.40
2023-03-10T02:17:27.882Z,11.40
2023-03-10T02:18:31.166Z,11.40
2023-03-10T02:20:10.881Z,11.40
2023-03-10T02:21:30.278Z,11.40
2023-03-10T02:22:33.341Z,11.40
2023-03-10T02:24:06.754Z,11.40
2023-03-10T02:25:17.346Z,11.40
2023-03-10T02:26:32.883Z,11.40
2023-03-10T02:27:37.154Z,11.40
2023-03-10T02:28:38.794Z,11.40
2023-03-10T02:30:06.067Z,11.30
2023-03-10T02:31:11.459Z,11.30
2023-03-10T02:32:15.205Z,11.40
2023-03-10T02:33:29.120Z,11.40
2023-03-10T02:34:32.276Z,11.40
2023-03-10T02:35:34.323Z,11.40
2023-03-10T02:36:40.256Z,11.40
2023-03-10T02:37:41.886Z,11.40
2023-03-10T02:38:43.597Z,11.50
2023-03-10T02:39:45.253Z,11.50
2023-03-10T02:40:52.452Z,11.50
2023-03-10T02:41:57.961Z,11.60
2023-03-10T02:43:22.269Z,11.50
2023-03-10T02:44:27.272Z,11.50
2023-03-10T02:45:32.487Z,11.50
2023-03-10T02:46:34.500Z,11.60
2023-03-10T02:47:35.914Z,11.60
2023-03-10T02:48:39.853Z,11.60
2023-03-10T02:49:46.569Z,11.60
2023-03-10T02:50:49.025Z,11.60
2023-03-10T02:51:50.932Z,11.60
2023-03-10T02:53:11.464Z,11.70
2023-03-10T02:54:14.527Z,11.70
2023-03-10T02:55:17.601Z,11.70
2023-03-10T02:56:19.247Z,11.70
2023-03-10T02:57:21.912Z,11.70
2023-03-10T02:58:25.641Z,11.70
2023-03-10T02:59:27.389Z,11.70
2023-03-10T03:00:30.126Z,11.70
2023-03-10T03:01:32.573Z,11.70
2023-03-10T03:02:34.722Z,11.70
2023-03-10T03:03:36.228Z,11.70
2023-03-10T03:04:38.039Z,11.70
2023-03-10T03:05:39.781Z,11.70
2023-03-10T03:06:41.426Z,11.80
2023-03-10T03:07:43.986Z,11.80
2023-03-10T03:08:45.578Z,11.70
2023-03-10T03:09:50.730Z,11.80
2023-03-10T03:10:52.397Z,11.80
2023-03-10T03:11:54.317Z,11.80
2023-03-10T03:12:56.693Z,11.80
2023-03-10T03:13:59.351Z,11.80
2023-03-10T03:15:01.620Z,11.90
2023-03-10T03:16:06.250Z,11.90
2023-03-10T03:17:07.743Z,11.80
2023-03-10T03:18:09.966Z,11.80
2023-03-10T03:19:12.276Z,11.80
2023-03-10T03:20:15.630Z,11.80
2023-03-10T03:21:21.370Z,11.80
2023-03-10T03:22:23.550Z,11.80
2023-03-10T03:23:25.011Z,11.80
2023-03-10T03:24:27.257Z,11.80
2023-03-10T03:25:30.381Z,11.80
2023-03-10T03:26:32.703Z,11.80
2023-03-10T03:27:45.376Z,11.70
2023-03-10T03:28:47.242Z,11.80
2023-03-10T03:29:50.862Z,11.70
2023-03-10T03:30:52.428Z,11.70
2023-03-10T03:31:54.316Z,11.80
2023-03-10T03:33:01.755Z,11.80
2023-03-10T03:34:04.440Z,11.80
2023-03-10T03:35:11.995Z,11.80
2023-03-10T03:36:14.188Z,11.80
2023-03-10T03:37:15.872Z,11.80
2023-03-10T03:38:17.643Z,11.70
2023-03-10T03:39:19.468Z,11.70
2023-03-10T03:40:26.934Z,11.80
2023-03-10T03:41:29.112Z,11.80
2023-03-10T03:42:30.759Z,11.80
2023-03-10T03:43:32.558Z,11.80
2023-03-10T03:44:34.740Z,11.80
2023-03-10T03:45:36.251Z,11.80
2023-03-10T03:46:37.902Z,11.80
2023-03-10T03:47:40.098Z,11.80
2023-03-10T03:48:41.633Z,11.80
2023-03-10T03:49:43.946Z,11.70
2023-03-10T03:50:48.201Z,11.70
2023-03-10T03:51:59.295Z,11.70
2023-03-10T03:53:02.193Z,11.60
2023-03-10T03:54:04.534Z,11.70
2023-03-10T03:55:11.237Z,11.60
2023-03-10T03:56:13.452Z,11.60
2023-03-10T03:57:17.448Z,11.60
2023-03-10T03:58:19.211Z,11.70
2023-03-10T03:59:21.890Z,11.70
2023-03-10T04:00:24.917Z,11.70
2023-03-10T04:01:34.148Z,11.70
2023-03-10T04:02:38.097Z,11.70
2023-03-10T04:03:40.767Z,11.60
2023-03-10T04:04:46.117Z,11.70
2023-03-10T04:05:47.613Z,11.70
2023-03-10T04:06:49.078Z,11.80
2023-03-10T04:07:50.931Z,11.80
2023-03-10T04:08:53.597Z,11.90
2023-03-10T04:09:57.758Z,11.90
2023-03-10T04:10:59.273Z,11.90
2023-03-10T04:12:02.871Z,11.90
2023-03-10T04:13:05.029Z,11.90
2023-03-10T04:14:06.817Z,12.00
2023-03-10T04:15:08.828Z,12.00
2023-03-10T04:16:10.357Z,12.10
2023-03-10T04:17:13.967Z,12.10
2023-03-10T04:18:15.938Z,12.10
2023-03-10T04:19:17.540Z,12.20
2023-03-10T04:20:22.274Z,12.10
2023-03-10T04:21:25.639Z,12.10
2023-03-10T04:22:29.443Z,12.10
2023-03-10T04:23:31.459Z,12.00
2023-03-10T04:24:33.390Z,12.00
2023-03-10T04:25:36.277Z,12.00
2023-03-10T04:26:38.676Z,12.00
2023-03-10T04:27:40.506Z,11.90
2023-03-10T04:28:42.661Z,11.90
2023-03-10T04:29:46.309Z,12.00
2023-03-10T04:30:48.278Z,11.90
2023-03-10T04:32:04.776Z,11.90
2023-03-10T04:33:11.254Z,11.70
2023-03-10T04:34:13.472Z,11.60
2023-03-10T04:35:15.284Z,11.60
2023-03-10T04:36:18.429Z,11.50
2023-03-10T04:37:22.970Z,11.40
2023-03-10T04:38:24.602Z,11.40
2023-03-10T04:39:27.692Z,11.30
2023-03-10T04:40:29.254Z,11.30
2023-03-10T04:41:31.078Z,11.30
2023-03-10T04:42:33.461Z,11.20
2023-03-10T04:43:35.667Z,11.30
2023-03-10T04:44:37.237Z,11.20
2023-03-10T04:45:40.628Z,11.20
2023-03-10T04:46:43.291Z,11.00
2023-03-10T04:47:44.925Z,11.00
2023-03-10T04:48:46.657Z,10.90
2023-03-10T04:49:49.524Z,10.90
2023-03-10T04:51:03.820Z,10.90
2023-03-10T04:52:08.935Z,10.80
2023-03-10T04:53:10.738Z,10.90
2023-03-10T04:54:12.525Z,10.90
2023-03-10T04:55:14.776Z,10.80
2023-03-10T04:56:17.158Z,10.80
2023-03-10T04:57:19.141Z,10.80
2023-03-10T04:58:22.580Z,10.80
2023-03-10T04:59:24.888Z,10.70
2023-03-10T05:00:26.947Z,10.70
2023-03-10T05:01:33.340Z,10.70
2023-03-10T05:02:39.383Z,10.80
2023-03-10T05:03:41.255Z,10.80
2023-03-10T05:04:43.974Z,10.80
2023-03-10T05:05:45.983Z,10.80
2023-03-10T05:06:52.289Z,10.80
2023-03-10T05:08:01.684Z,10.90
2023-03-10T05:09:05.678Z,10.90
2023-03-10T05:10:10.026Z,11.00
2023-03-10T05:11:12.245Z,11.10
2023-03-10T05:12:14.345Z,11.10
2023-03-10T05:13:16.239Z,11.10
2023-03-10T05:14:19.425Z,11.10
2023-03-10T05:15:21.523Z,11.20
2023-03-10T05:16:23.960Z,11.20
2023-03-10T05:17:30.709Z,11.30
2023-03-10T05:18:32.614Z,11.40
2023-03-10T05:19:35.456Z,11.40
2023-03-10T05:20:38.827Z,11.40
2023-03-10T05:21:40.454Z,11.50
2023-03-10T05:22:42.941Z,11.60
2023-03-10T05:23:44.593Z,11.60
2023-03-10T05:24:48.241Z,11.70
2023-03-10T05:25:51.525Z,11.70
2023-03-10T05:26:55.023Z,11.60
2023-03-10T05:27:56.799Z,11.70
2023-03-10T05:28:58.480Z,11.70
2023-03-10T05:30:11.204Z,11.70
2023-03-10T05:31:15.620Z,11.60
2023-03-10T05:32:19.326Z,11.70
2023-03-10T05:33:22.603Z,11.70
2023-03-10T05:34:26.872Z,11.70
2023-03-10T05:35:31.289Z,11.70
2023-03-10T05:36:33.579Z,11.80
2023-03-10T05:37:43.711Z,11.80
2023-03-10T05:38:45.573Z,11.80
2023-03-10T05:39:49.310Z,11.80
2023-03-10T05:40:54.472Z,11.80
2023-03-10T05:41:56.192Z,11.70
2023-03-10T05:43:02.122Z,11.70
2023-03-10T05:44:04.625Z,11.80
2023-03-10T05:45:10.254Z,11.80
2023-03-10T05:46:12.902Z,11.80
2023-03-10T05:47:20.434Z,11.80
2023-03-10T05:48:22.487Z,11.80
2023-03-10T05:49:24.102Z,11.70
2023-03-10T05:50:26.463Z,11.70
2023-03-10T05:51:28.108Z,11.70
2023-03-10T05:52:30.570Z,11.70
2023-03-10T05:53:33.122Z,11.80
2023-03-10T05:54:36.710Z,11.80
2023-03-10T05:55:38.311Z,11.80
2023-03-10T05:56:40.041Z,11.80
2023-03-10T05:57:41.860Z,11.80
2023-03-10T05:58:43.847Z,11.80
2023-03-10T05:59:46.055Z,11.80
2023-03-10T06:00:48.060Z,11.80
2023-03-10T06:01:49.913Z,11.80
2023-03-10T06:02:51.367Z,11.80
2023-03-10T06:03:52.852Z,11.80
2023-03-10T06:04:54.307Z,11.80
2023-03-10T06:05:57.243Z,11.70
2023-03-10T06:07:00.688Z,11.70
2023-03-10T06:08:02.309Z,11.70
2023-03-10T06:09:04.267Z,11.80
2023-03-10T06:10:06.440Z,11.80
2023-03-10T06:11:07.992Z,11.80
2023-03-10T06:12:10.418Z,11.80
2023-03-10T06:13:11.919Z,11.90
2023-03-10T06:14:13.428Z,11.90
2023-03-10T06:15:14.894Z,11.90
2023-03-10T06:16:16.351Z,11.90
2023-03-10T06:17:19.721Z,12.00
2023-03-10T06:18:22.148Z,12.00
2023-03-10T06:19:24.505Z,12.00
2023-03-10T06:20:26.339Z,12.00
2023-03-10T06:21:29.496Z,12.00
2023-03-10T06:22:31.526Z,12.00
2023-03-10T06:23:33.581Z,12.00
2023-03-10T06:24:35.076Z,12.10
2023-03-10T06:25:37.203Z,12.10
2023-03-10T06:26:38.886Z,12.00
2023-03-10T06:27:40.442Z,12.00
2023-03-10T06:28:44.680Z,12.00
2023-03-10T06:29:48.489Z,12.00
2023-03-10T06:30:57.450Z,12.00
2023-03-10T06:31:58.897Z,12.10
2023-03-10T06:33:01.267Z,12.10
2023-03-10T06:34:04.553Z,12.20
2023-03-10T06:35:07.256Z,12.20
2023-03-10T06:36:11.442Z,12.20
2023-03-10T06:37:13.130Z,12.20
2023-03-10T06:38:14.818Z,12.10
2023-03-10T06:39:16.246Z,12.10
2023-03-10T06:40:17.879Z,12.00
2023-03-10T06:41:20.339Z,11.90
2023-03-10T06:42:21.778Z,11.90
2023-03-10T06:43:23.312Z,11.70
2023-03-10T06:44:24.763Z,11.60
2023-03-10T06:45:26.345Z,11.60
2023-03-10T06:46:29.828Z,11.50
2023-03-10T06:47:31.250Z,11.40
2023-03-10T06:48:34.101Z,11.30
2023-03-10T06:49:35.618Z,11.30
2023-03-10T06:50:41.615Z,11.10
2023-03-10T06:51:43.494Z,11.00
2023-03-10T06:52:45.798Z,10.90
2023-03-10T06:53:47.840Z,10.80
2023-03-10T06:54:49.720Z,10.80
2023-03-10T06:55:59.486Z,10.80
2023-03-10T06:57:00.916Z,10.70
2023-03-10T06:58:02.521Z,10.70
2023-03-10T06:59:04.663Z,10.50
2023-03-10T07:00:11.350Z,10.40
2023-03-10T07:01:25.735Z,10.30
2023-03-10T07:02:27.304Z,10.30
2023-03-10T07:03:29.424Z,10.30
2023-03-10T07:04:30.926Z,10.30
2023-03-10T07:05:32.483Z,10.10
2023-03-10T07:06:34.071Z,10.10
2023-03-10T07:07:35.735Z,10.10
2023-03-10T07:08:37.436Z,10.10
2023-03-10T07:09:38.931Z,10.10
2023-03-10T07:10:40.482Z,10.10
2023-03-10T07:11:41.970Z,10.10
2023-03-10T07:12:44.064Z,10.10
2023-03-10T07:13:45.521Z,10.10
2023-03-10T07:14:47.470Z,10.00
2023-03-10T07:15:48.953Z,10.00
2023-03-10T07:16:50.715Z,10.00
2023-03-10T07:17:52.669Z,9.90
2023-03-10T07:18:54.277Z,9.90
2023-03-10T07:19:56.170Z,9.90
2023-03-10T07:20:58.148Z,9.90
2023-03-10T07:21:59.955Z,9.90
2023-03-10T07:23:01.339Z,9.90
2023-03-10T07:24:02.811Z,9.90
2023-03-10T07:25:05.035Z,9.80
2023-03-10T07:26:08.982Z,9.80
2023-03-10T07:27:10.466Z,9.90
2023-03-10T07:28:12.101Z,9.90
2023-03-10T07:29:13.862Z,9.90
2023-03-10T07:30:15.567Z,9.90
2023-03-10T07:31:17.480Z,10.00
2023-03-10T07:32:19.066Z,10.00
2023-03-10T07:33:20.626Z,10.00
2023-03-10T07:34:22.194Z,10.10
2023-03-10T07:35:23.666Z,10.10
2023-03-10T07:36:25.161Z,10.10
2023-03-10T07:37:26.676Z,10.10
2023-03-10T07:38:28.097Z,10.20
2023-03-10T07:39:29.602Z,10.20
2023-03-10T07:40:31.043Z,10.30
2023-03-10T07:41:32.781Z,10.30
2023-03-10T07:42:34.380Z,10.30
2023-03-10T07:43:36.288Z,10.40
2023-03-10T07:44:37.726Z,10.40
2023-03-10T07:45:39.271Z,10.40
2023-03-10T07:46:41.208Z,10.40
2023-03-10T07:47:42.601Z,10.30
2023-03-10T07:48:44.669Z,10.30
2023-03-10T07:49:47.197Z,10.40
2023-03-10T07:50:56.934Z,10.30
2023-03-10T07:51:58.404Z,10.40
2023-03-10T07:52:59.795Z,10.40
2023-03-10T07:54:01.262Z,10.50
2023-03-10T07:55:03.235Z,10.50
2023-03-10T07:56:09.179Z,10.50
2023-03-10T07:57:11.633Z,10.50
2023-03-10T07:58:13.004Z,10.60
2023-03-10T07:59:14.402Z,10.60
2023-03-10T08:00:16.671Z,10.70
2023-03-10T08:01:20.503Z,10.70
2023-03-10T08:02:21.983Z,10.80
2023-03-10T08:03:25.704Z,10.80
2023-03-10T08:04:27.293Z,10.80
2023-03-10T08:05:29.036Z,10.70
2023-03-10T08:06:32.710Z,10.70
2023-03-10T08:07:34.582Z,10.80
2023-03-10T08:08:35.993Z,10.80
2023-03-10T08:09:37.709Z,10.90
2023-03-10T08:10:39.185Z,10.90
2023-03-10T08:11:40.911Z,11.00
2023-03-10T08:12:42.355Z,11.00
2023-03-10T08:13:47.254Z,11.10
2023-03-10T08:14:50.516Z,11.00
2023-03-10T08:15:51.917Z,11.00
2023-03-10T08:16:56.514Z,11.00
2023-03-10T08:17:58.052Z,11.00
2023-03-10T08:18:59.484Z,11.00
2023-03-10T08:20:01.192Z,11.00
2023-03-10T08:21:06.804Z,11.10
2023-03-10T08:22:10.313Z,11.10
2023-03-10T08:23:11.820Z,11.00
2023-03-10T08:24:13.387Z,11.10
2023-03-10T08:25:14.810Z,11.00
2023-03-10T08:26:18.052Z,11.00
2023-03-10T08:27:20.004Z,11.10
2023-03-10T08:28:21.631Z,11.00
2023-03-10T08:29:23.895Z,10.90
2023-03-10T08:30:26.667Z,10.90
2023-03-10T08:31:28.603Z,10.90
2023-03-10T08:32:32.345Z,10.80
2023-03-10T08:33:35.478Z,10.80
2023-03-10T08:34:37.013Z,10.70
2023-03-10T08:35:38.933Z,10.70
2023-03-10T08:36:40.629Z,10.70
2023-03-10T08:37:43.359Z,10.60
2023-03-10T08:38:46.418Z,10.60
2023-03-10T08:39:49.981Z,10.60
2023-03-10T08:40:51.361Z,10.60
2023-03-10T08:41:52.897Z,10.50
2023-03-10T08:42:54.581Z,10.50
2023-03-10T08:43:57.936Z,10.50
2023-03-10T08:44:59.637Z,10.50
2023-03-10T08:46:01.070Z,10.50
2023-03-10T08:47:02.650Z,10.50
2023-03-10T08:48:04.134Z,10.50
2023-03-10T08:49:05.936Z,10.50
2023-03-10T08:50:08.089Z,10.50
2023-03-10T08:51:10.378Z,10.50
2023-03-10T08:52:11.887Z,10.60
2023-03-10T08:53:13.552Z,10.60
2023-03-10T08:54:18.358Z,10.60
2023-03-10T08:55:20.213Z,10.60
2023-03-10T08:56:23.238Z,10.70
2023-03-10T08:57:25.234Z,10.70
2023-03-10T08:58:26.701Z,10.70
2023-03-10T08:59:28.799Z,10.70
2023-03-10T09:00:30.327Z,10.70
2023-03-10T09:01:34.804Z,10.70
2023-03-10T09:02:36.232Z,10.70
2023-03-10T09:03:39.893Z,10.70
2023-03-10T09:04:42.638Z,10.60
2023-03-10T09:05:44.239Z,10.70
2023-03-10T09:06:45.831Z,10.80
2023-03-10T09:07:47.454Z,10.80
2023-03-10T09:08:50.794Z,10.80
2023-03-10T09:09:52.338Z,10.80
2023-03-10T09:10:53.751Z,10.80
2023-03-10T09:11:55.220Z,10.80
2023-03-10T09:13:11.268Z,10.80
2023-03-10T09:14:17.410Z,10.90
2023-03-10T09:15:19.812Z,10.90
2023-03-10T09:16:21.428Z,10.90
2023-03-10T09:17:23.313Z,11.00
2023-03-10T09:18:24.975Z,11.00
2023-03-10T09:19:26.414Z,11.10
2023-03-10T09:20:29.434Z,11.20
2023-03-10T09:21:33.596Z,11.20
2023-03-10T09:22:35.645Z,11.20
2023-03-10T09:23:37.852Z,11.20
2023-03-10T09:24:39.240Z,11.20
2023-03-10T09:25:40.931Z,11.20
2023-03-10T09:26:44.710Z,11.20
2023-03-10T09:27:46.989Z,11.20
2023-03-10T09:28:50.916Z,11.20
2023-03-10T09:29:52.575Z,11.20
2023-03-10T09:30:55.103Z,11.20
2023-03-10T09:31:56.571Z,11.20
2023-03-10T09:32:58.486Z,11.10
2023-03-10T09:34:00.237Z,11.10
2023-03-10T09:35:02.049Z,11.10
2023-03-10T09:36:07.878Z,11.10
2023-03-10T09:37:09.853Z,11.00
2023-03-10T09:38:13.047Z,11.00
2023-03-10T09:39:14.441Z,11.10
2023-03-10T09:40:20.389Z,11.10
2023-03-10T09:41:59.284Z,11.10
2023-03-10T09:43:04.360Z,11.20
2023-03-10T09:44:15.227Z,11.20
2023-03-10T09:45:33.833Z,11.20
2023-03-10T09:47:21.025Z,11.30
2023-03-10T09:48:28.339Z,11.40
2023-03-10T09:49:41.321Z,11.40
2023-03-10T09:50:49.704Z,11.40
2023-03-10T09:51:51.913Z,11.40
2023-03-10T09:52:56.512Z,11.40
2023-03-10T09:54:27.135Z,11.40
2023-03-10T09:55:36.626Z,11.30
2023-03-10T09:56:38.711Z,11.40
2023-03-10T09:57:40.560Z,11.30
2023-03-10T09:58:49.988Z,11.20
2023-03-10T09:59:56.963Z,11.20
2023-03-10T10:01:00.439Z,11.20
2023-03-10T10:02:15.801Z,11.30
2023-03-10T10:03:21.720Z,11.40
2023-03-10T10:04:31.829Z,11.40
2023-03-10T10:05:35.700Z,11.30
2023-03-10T10:06:39.670Z,11.30
2023-03-10T10:07:46.719Z,11.30
2023-03-10T10:09:27.962Z,11.30
2023-03-10T10:10:35.654Z,11.20
2023-03-10T10:11:37.399Z,11.20
2023-03-10T10:12:39.321Z,11.20
2023-03-10T10:13:43.154Z,11.20
2023-03-10T10:14:56.647Z,11.20
2023-03-10T10:16:31.878Z,11.30
2023-03-10T10:18:17.853Z,11.30
2023-03-10T10:19:25.292Z,11.20
2023-03-10T10:20:32.411Z,11.20
2023-03-10T10:22:08.432Z,11.20
2023-03-10T10:23:22.904Z,11.10
2023-03-10T10:24:24.918Z,11.10
2023-03-10T10:25:31.166Z,11.00
2023-03-10T10:26:32.737Z,11.10
2023-03-10T10:27:35.585Z,11.00
2023-03-10T10:28:44.995Z,10.90
2023-03-10T10:29:47.165Z,10.90
2023-03-10T10:30:49.373Z,10.90
2023-03-10T10:32:06.104Z,10.90
2023-03-10T10:33:13.525Z,10.90
2023-03-10T10:34:21.437Z,10.90
2023-03-10T10:35:25.273Z,10.90
2023-03-10T10:36:29.971Z,10.90
2023-03-10T10:37:43.013Z,10.80
2023-03-10T10:38:50.476Z,10.80
2023-03-10T10:39:53.978Z,10.80
2023-03-10T10:41:18.149Z,10.80
2023-03-10T10:42:27.460Z,10.90
2023-03-10T10:43:29.520Z,10.80
2023-03-10T10:44:41.527Z,10.70
2023-03-10T10:45:43.268Z,10.80
2023-03-10T10:46:56.588Z,10.70
2023-03-10T10:47:58.440Z,10.80
2023-03-10T10:49:24.414Z,10.80
2023-03-10T10:50:31.720Z,10.80
2023-03-10T10:51:37.564Z,10.70
2023-03-10T10:52:39.224Z,10.80
2023-03-10T10:53:42.818Z,10.80
2023-03-10T10:54:51.865Z,10.80
2023-03-10T10:56:03.030Z,10.90
2023-03-10T10:57:16.068Z,10.90
2023-03-10T10:58:35.470Z,10.90
2023-03-10T10:59:36.903Z,10.80
2023-03-10T11:00:38.970Z,10.70
2023-03-10T11:01:59.784Z,10.70
2023-03-10T11:03:01.572Z,10.70
2023-03-10T11:04:08.066Z,10.70
2023-03-10T11:05:12.934Z,10.60
2023-03-10T11:06:29.211Z,10.70
2023-03-10T11:07:30.602Z,10.70
2023-03-10T11:08:37.550Z,10.60
2023-03-10T11:09:39.248Z,10.70
2023-03-10T11:10:41.602Z,10.70
2023-03-10T11:12:08.591Z,10.70
2023-03-10T11:13:39.873Z,10.70
2023-03-10T11:14:41.327Z,10.70
2023-03-10T11:15:58.172Z,10.70
2023-03-10T11:17:05.833Z,10.80
2023-03-10T11:18:10.426Z,10.70
2023-03-10T11:19:34.716Z,10.70
2023-03-10T11:20:39.169Z,10.70
2023-03-10T11:21:45.445Z,10.70
2023-03-10T11:22:48.867Z,10.70
2023-03-10T11:24:18.113Z,10.70
2023-03-10T11:25:25.932Z,10.70
2023-03-10T11:26:36.480Z,10.70
2023-03-10T11:28:12.123Z,10.70
2023-03-10T11:29:24.023Z,10.70
2023-03-10T11:30:35.208Z,10.80
2023-03-10T11:31:49.784Z,10.70
2023-03-10T11:33:34.373Z,10.70
2023-03-10T11:34:40.791Z,10.80
2023-03-10T11:35:46.978Z,10.70
2023-03-10T11:36:57.637Z,10.70
2023-03-10T11:38:24.161Z,10.70
2023-03-10T11:39:28.907Z,10.70
2023-03-10T11:40:48.513Z,10.60
2023-03-10T11:41:56.567Z,10.60
2023-03-10T11:43:13.641Z,10.60
2023-03-10T11:44:27.373Z,10.60
2023-03-10T11:45:52.782Z,10.60
2023-03-10T11:47:06.916Z,10.70
2023-03-10T11:48:08.451Z,10.60
2023-03-10T11:49:16.720Z,10.60
2023-03-10T11:50:21.158Z,10.60
2023-03-10T11:51:31.860Z,10.60
2023-03-10T11:52:34.062Z,10.50
2023-03-10T11:53:50.077Z,10.50
2023-03-10T11:55:05.715Z,10.50
2023-03-10T11:56:10.883Z,10.50
2023-03-10T11:57:21.889Z,10.50
2023-03-10T11:58:39.605Z,10.50
2023-03-10T11:59:53.100Z,10.40
2023-03-10T12:00:55.481Z,10.30
2023-03-10T12:02:03.088Z,10.30
2023-03-10T12:03:53.545Z,10.20
2023-03-10T12:05:02.050Z,10.20
2023-03-10T12:06:07.544Z,10.10
2023-03-10T12:07:36.171Z,10.00
2023-03-10T12:08:38.920Z,10.00
2023-03-10T12:09:45.172Z,10.00
2023-03-10T12:10:46.946Z,10.00
2023-03-10T12:11:49.145Z,10.00
2023-03-10T12:12:53.506Z,10.00
2023-03-10T12:14:00.669Z,10.00
2023-03-10T12:15:11.799Z,10.00
2023-03-10T12:16:20.411Z,9.90
2023-03-10T12:17:21.911Z,10.00
2023-03-10T12:18:26.434Z,9.90
2023-03-10T12:19:28.281Z,9.90
2023-03-10T12:20:31.741Z,10.00
2023-03-10T12:21:33.628Z,10.00
2023-03-10T12:22:46.263Z,9.90
2023-03-10T12:23:53.172Z,10.00
2023-03-10T12:24:54.832Z,9.90
2023-03-10T12:25:56.734Z,9.90
2023-03-10T12:27:01.547Z,9.90
2023-03-10T12:28:15.951Z,10.00
2023-03-10T12:29:20.392Z,10.00
2023-03-10T12:30:59.232Z,10.00
2023-03-10T12:32:01.555Z,10.10
2023-03-10T12:33:03.293Z,10.00
2023-03-10T12:34:24.970Z,10.00
2023-03-10T12:35:29.401Z,10.00
2023-03-10T12:36:33.828Z,10.00
2023-03-10T12:37:35.453Z,10.00
2023-03-10T12:38:47.593Z,10.00
2023-03-10T12:39:49.276Z,10.00
2023-03-10T12:40:52.046Z,10.00
2023-03-10T12:41:54.831Z,10.10
2023-03-10T12:42:56.299Z,10.10
2023-03-10T12:44:06.606Z,10.20
2023-03-10T12:45:25.778Z,10.20
2023-03-10T12:46:44.308Z,10.30
2023-03-10T12:47:55.555Z,10.20
2023-03-10T12:49:25.083Z,10.30
2023-03-10T12:50:32.110Z,10.30
2023-03-10T12:51:40.401Z,10.30
2023-03-10T12:52:44.676Z,10.30
2023-03-10T12:53:54.182Z,10.30
2023-03-10T12:55:12.880Z,10.40
2023-03-10T12:56:14.686Z,10.50
2023-03-10T12:57:54.133Z,10.50
2023-03-10T12:59:05.247Z,10.50
2023-03-10T13:00:33.986Z,10.50
2023-03-10T13:01:53.306Z,10.50
2023-03-10T13:03:13.587Z,10.40
2023-03-10T13:04:21.129Z,10.50
2023-03-10T13:05:31.280Z,10.50
2023-03-10T13:06:37.811Z,10.50
2023-03-10T13:07:48.524Z,10.50
2023-03-10T13:09:26.500Z,10.40
2023-03-10T13:10:30.626Z,10.40
2023-03-10T13:11:41.941Z,10.40
2023-03-10T13:12:54.522Z,10.40
2023-03-10T13:14:04.714Z,10.40
2023-03-10T13:15:08.841Z,10.40
2023-03-10T13:16:19.516Z,10.40
2023-03-10T13:17:30.178Z,10.50
2023-03-10T13:18:32.915Z,10.50
2023-03-10T13:19:36.338Z,10.60
2023-03-10T13:20:38.734Z,10.60
2023-03-10T13:21:40.479Z,10.60
2023-03-10T13:22:55.713Z,10.60
2023-03-10T13:23:59.379Z,10.60
2023-03-10T13:25:08.144Z,10.60
2023-03-10T13:26:16.252Z,10.60
2023-03-10T13:27:19.776Z,10.60
2023-03-10T13:28:21.891Z,10.60
2023-03-10T13:29:23.322Z,10.60
2023-03-10T13:30:27.782Z,10.60
2023-03-10T13:31:33.826Z,10.60
2023-03-10T13:32:35.425Z,10.60
2023-03-10T13:33:50.233Z,10.70
2023-03-10T13:34:54.582Z,10.70
2023-03-10T13:35:56.235Z,10.70
2023-03-10T13:37:10.953Z,10.60
2023-03-10T13:38:17.670Z,10.60
2023-03-10T13:39:27.900Z,10.60
2023-03-10T13:40:29.455Z,10.60
2023-03-10T13:41:37.468Z,10.70
2023-03-10T13:42:44.168Z,10.60
2023-03-10T13:43:51.255Z,10.60
2023-03-10T13:44:54.458Z,10.60
2023-03-10T13:45:57.730Z,10.60
2023-03-10T13:47:01.714Z,10.60
2023-03-10T13:48:05.053Z,10.50
2023-03-10T13:49:08.096Z,10.60
2023-03-10T13:50:15.472Z,10.60
2023-03-10T13:51:17.637Z,10.60
2023-03-10T13:52:26.447Z,10.60
2023-03-10T13:53:27.971Z,10.60
2023-03-10T13:54:37.544Z,10.60
2023-03-10T13:55:40.653Z,10.60
2023-03-10T13:56:44.080Z,10.60
2023-03-10T13:57:47.656Z,10.60
2023-03-10T13:58:51.290Z,10.50
2023-03-10T13:59:55.113Z,10.50
2023-03-10T14:00:57.455Z,10.40